Data for 09/05/2014

Time Sea-Level Adjusted Pressure Absolute Pressure Temperature Relative Humidity Dew Point   
(mb) (inHg) (mb) (inHg) (C) (F) (%) (C) (F)
00:05 1024 30.24 853 25.19 7.2 44.9 61 0.1 32.2
00:10 1024 30.24 853 25.19 7.1 44.8 61 0.2 32.4
00:15 1024 30.24 853 25.19 7.3 45.2 60 -0 32
00:20 1024 30.24 853 25.19 7.2 44.9 62 0.4 32.7
00:25 1024 30.24 853 25.19 6.7 44 63 0.1 32.2
00:30 1024 30.24 853 25.19 6.6 44 62 -0.1 31.8
00:35 1024 30.24 853 25.19 6.8 44.2 63 0.2 32.4
00:40 1024 30.24 853 25.19 6.4 43.6 64 0.1 32.2
00:45 1024 30.24 853 25.19 6.3 43.3 64 0.1 32.2
00:50 1024 30.24 853 25.19 6.2 43.2 64 -0 31.9
00:55 1024 30.24 853 25.19 6.2 43.1 64 -0.1 31.8
01:00 1024 30.24 853 25.19 6.1 43.1 64 -0 31.9
01:05 1024 30.24 853 25.19 6 42.8 65 -0.1 31.8
01:10 1024 30.24 853 25.19 5.9 42.7 64 -0.4 31.3
01:15 1024 30.24 853 25.19 6 42.8 64 -0.3 31.4
01:20 1024 30.24 853 25.19 6.1 42.9 63 -0.4 31.3
01:25 1024 30.24 853 25.19 6.1 43 63 -0.3 31.4
01:30 1024 30.24 853 25.19 6.3 43.3 63 -0.2 31.6
01:35 1024 30.24 853 25.19 6.4 43.5 63 -0.2 31.7
01:40 1024 30.24 853 25.19 6.3 43.3 63 -0.1 31.7
01:45 1024 30.24 853 25.19 6.3 43.3 63 -0.3 31.5
01:50 1024 30.24 853 25.19 6.4 43.5 63 -0.2 31.6
01:55 1024 30.24 853 25.19 6.2 43.2 64 -0 32
02:00 1024 30.24 853 25.19 6.2 43.1 64 -0.2 31.6
02:05 1024 30.24 853 25.19 6.3 43.3 63 -0.1 31.7
02:10 1024 30.24 853 25.19 6.1 43 64 -0.2 31.7
02:15 1024 30.24 853 25.19 6.2 43.1 63 -0.3 31.5
02:20 1024 30.24 853 25.19 6.2 43.1 63 -0.3 31.5
02:25 1024 30.24 853 25.19 6.2 43.2 62 -0.4 31.2
02:30 1024 30.24 853 25.19 6.3 43.4 62 -0.3 31.4
02:35 1024 30.24 854 25.22 6.3 43.3 62 -0.3 31.4
02:40 1024 30.24 854 25.22 6.2 43.2 63 -0.3 31.5
02:45 1024 30.24 854 25.22 6.1 43.1 62 -0.5 31.1
02:50 1024 30.24 854 25.22 6.2 43.2 63 -0.3 31.4
02:55 1024 30.24 854 25.22 6 42.8 63 -0.4 31.3
03:00 1024 30.24 854 25.22 6 42.7 63 -0.5 31.1
03:05 1025 30.27 854 25.22 5.9 42.5 63 -0.7 30.8
03:10 1025 30.27 854 25.22 5.9 42.7 62 -0.7 30.7
03:15 1025 30.27 854 25.22 6.4 43.5 60 -0.8 30.6
03:20 1025 30.27 854 25.22 6.4 43.5 60 -0.8 30.6
03:25 1025 30.27 854 25.22 6.2 43.2 61 -0.7 30.7
03:30 1025 30.27 854 25.22 6 42.8 62 -0.8 30.6
03:35 1025 30.27 854 25.22 6.1 43 61 -0.9 30.4
03:40 1025 30.27 854 25.22 6.1 43 61 -0.8 30.6
03:45 1025 30.27 854 25.22 6.2 43.1 60 -0.9 30.3
03:50 1025 30.27 854 25.22 6 42.7 63 -0.5 31.1
03:55 1025 30.27 854 25.22 5.3 41.5 66 -0.6 30.9
04:00 1025 30.27 854 25.22 5 41 66 -0.8 30.5
04:05 1025 30.27 854 25.22 4.9 40.9 66 -0.8 30.6
04:10 1025 30.27 854 25.22 4.9 40.8 64 -1.3 29.6
04:15 1025 30.27 854 25.22 5.3 41.5 63 -1.2 29.9
04:20 1025 30.27 854 25.22 5.1 41.3 65 -0.9 30.3
04:25 1025 30.27 854 25.22 5.1 41.2 63 -1.3 29.7
04:30 1025 30.27 854 25.22 5.6 42.1 61 -1.4 29.6
04:35 1025 30.27 854 25.22 5.9 42.6 62 -0.8 30.6
04:40 1025 30.27 854 25.22 5.8 42.5 62 -0.8 30.6
04:45 1025 30.27 854 25.22 5.8 42.5 63 -0.7 30.8
04:50 1025 30.27 854 25.22 5.7 42.3 63 -0.7 30.7
04:55 1025 30.27 854 25.22 5.7 42.2 63 -0.7 30.7
05:00 1025 30.27 854 25.22 5.8 42.5 62 -0.8 30.6
05:05 1025 30.27 854 25.22 5.8 42.4 63 -0.7 30.7
05:10 1025 30.27 854 25.22 5.7 42.3 63 -0.7 30.7
05:15 1025 30.27 854 25.22 5.6 42.1 64 -0.7 30.7
05:20 1025 30.27 855 25.25 5.8 42.5 63 -0.8 30.6
05:25 1025 30.27 855 25.25 5.9 42.7 63 -0.7 30.8
05:30 1025 30.27 855 25.25 5.8 42.5 64 -0.5 31.1
05:35 1025 30.27 855 25.25 5.7 42.2 64 -0.5 31.1
05:40 1025 30.27 855 25.25 5.6 42 65 -0.5 31.1
05:45 1025 30.27 855 25.25 5.6 42.1 64 -0.5 31
05:50 1026 30.3 855 25.25 5.8 42.4 64 -0.6 31
05:55 1026 30.3 855 25.25 5.9 42.7 64 -0.4 31.2
06:00 1026 30.3 855 25.25 5.7 42.3 65 -0.2 31.6
06:05 1026 30.3 855 25.25 5.6 42 66 -0.3 31.5
06:10 1026 30.3 855 25.25 5.7 42.2 65 -0.3 31.5
06:15 1026 30.3 855 25.25 5.8 42.5 64 -0.4 31.4
06:20 1026 30.3 855 25.25 5.9 42.7 64 -0.3 31.5
06:25 1026 30.3 855 25.25 5.8 42.5 64 -0.4 31.3
06:30 1026 30.3 855 25.25 5.8 42.5 64 -0.4 31.2
06:35 1026 30.3 855 25.25 5.6 42.1 65 -0.4 31.2
06:40 1026 30.3 855 25.25 5.6 42.1 65 -0.5 31.1
06:45 1026 30.3 855 25.25 5.7 42.3 64 -0.5 31.1
06:50 1026 30.3 855 25.25 5.9 42.7 63 -0.5 31.1
06:55 1026 30.3 855 25.25 6.3 43.3 62 -0.5 31.1
07:00 1026 30.3 855 25.25 6.7 44.1 61 -0.3 31.4
07:05 1026 30.3 855 25.25 6.8 44.2 60 -0.3 31.5
07:10 1026 30.3 856 25.28 7.1 44.8 58 -0.6 31
07:15 1026 30.3 856 25.28 7.3 45.2 58 -0.3 31.4
07:20 1026 30.3 856 25.28 7.9 46.3 56 -0.3 31.5
07:25 1026 30.3 856 25.28 8.1 46.5 56 -0.1 31.9
07:30 1026 30.3 856 25.28 8.1 46.6 55 -0.3 31.5
07:35 1026 30.3 856 25.28 8.6 47.4 54 -0.1 31.8
07:40 1026 30.3 856 25.28 9.2 48.5 48 -1.1 30
07:45 1026 30.3 856 25.28 9.5 49.1 50 -0.4 31.3
07:50 1027 30.33 856 25.28 9.6 49.2 49 -0.5 31.1
07:55 1027 30.33 856 25.28 9.8 49.7 49 -0.2 31.6
08:00 1027 30.33 856 25.28 9.6 49.3 49 -0.6 31
08:05 1027 30.33 856 25.28 9.5 49.1 49 -0.6 30.9
08:10 1027 30.33 856 25.28 10.1 50.3 48 -0.2 31.6
08:15 1027 30.33 856 25.28 10.3 50.5 49 -0 32
08:20 1027 30.33 856 25.28 10.4 50.7 50 0.4 32.7
08:25 1027 30.33 856 25.28 10.6 51.2 49 0.4 32.7
08:30 1027 30.33 856 25.28 11.2 52.2 45 -0.1 31.8
08:35 1027 30.33 856 25.28 11.4 52.5 45 -0.1 31.8
08:40 1027 30.33 856 25.28 12 53.7 42 -0.3 31.4
08:45 1027 30.33 856 25.28 13.1 55.6 40 -0.1 31.9
08:50 1027 30.33 856 25.28 13.5 56.3 39 -0.2 31.6
08:55 1027 30.33 856 25.28 13.6 56.5 40 0.2 32.4
09:00 1027 30.33 856 25.28 13.8 56.8 33 -2.2 28
09:05 1027 30.33 856 25.28 13.8 56.8 36 -1 30.2
09:10 1027 30.33 856 25.28 14.1 57.3 36 -0.8 30.6
09:15 1027 30.33 856 25.28 14.5 58.2 38 0.4 32.8
09:20 1027 30.33 856 25.28 14.6 58.2 37 0.3 32.5
09:25 1027 30.33 856 25.28 14.7 58.4 39 1 33.8
09:30 1027 30.33 856 25.28 13.9 57 42 1.3 34.3
09:35 1027 30.33 856 25.28 14.4 57.9 40 0.9 33.7
09:40 1027 30.33 856 25.28 14.1 57.4 43 1.7 35.1
09:45 1027 30.33 856 25.28 14.2 57.6 40 1 33.8
09:50 1027 30.33 856 25.28 14 57.1 42 1.3 34.3
09:55 1027 30.33 856 25.28 14.6 58.3 39 1 33.8
10:00 1027 30.33 856 25.28 15 58.9 39 1.3 34.4
10:05 1027 30.33 856 25.28 14.2 57.5 42 1.6 34.9
10:10 1027 30.33 856 25.28 14.2 57.5 38 0.1 32.2
10:15 1027 30.33 856 25.28 14.7 58.4 37 0.3 32.5
10:20 1027 30.33 856 25.28 15.3 59.5 38 1.1 33.9
10:25 1027 30.33 856 25.28 14.3 57.7 40 0.9 33.6
10:30 1027 30.33 856 25.28 14 57.3 41 0.9 33.6
10:35 1027 30.33 856 25.28 14.8 58.7 38 0.7 33.3
10:40 1027 30.33 856 25.28 14.4 57.9 41 1.3 34.3
10:45 1027 30.33 856 25.28 14 57.2 40 0.6 33.1
10:50 1027 30.33 856 25.28 15.3 59.5 37 0.9 33.6
10:55 1026 30.3 856 25.28 15.8 60.4 35 0.6 33.1
11:00 1026 30.3 856 25.28 16.4 61.6 36 1.4 34.5
11:05 1026 30.3 856 25.28 15.9 60.7 37 1.4 34.6
11:10 1026 30.3 856 25.28 15 58.9 39 1.3 34.4
11:15 1026 30.3 856 25.28 15.5 59.9 37 1 33.9
11:20 1026 30.3 856 25.28 16.4 61.4 34 0.4 32.7
11:25 1026 30.3 856 25.28 17.5 63.5 31 0.1 32.2
11:30 1026 30.3 855 25.25 17.7 63.9 29 -0.3 31.5
11:35 1026 30.3 855 25.25 17.2 62.9 31 -0.1 31.9
11:40 1026 30.3 855 25.25 16.6 61.9 29 -1.3 29.7
11:45 1026 30.3 855 25.25 16.7 62.1 32 0.1 32.2
11:50 1026 30.3 855 25.25 16.6 62 32 0 32.1
11:55 1026 30.3 855 25.25 16.5 61.6 31 -0.8 30.6
12:00 1026 30.3 855 25.25 16.9 62.4 28 -1.5 29.4
12:05 1026 30.3 855 25.25 16.6 61.8 29 -1.7 29
12:10 1026 30.3 855 25.25 16.8 62.2 32 0 32
12:15 1026 30.3 855 25.25 17.8 64.1 27 -1.2 29.8
12:20 1026 30.3 855 25.25 18.6 65.5 26 -1.2 29.9
12:25 1026 30.3 855 25.25 18.8 65.9 26 -1.1 30.1
12:30 1026 30.3 855 25.25 18.7 65.7 26 -1.1 30.1
12:35 1026 30.3 855 25.25 19.1 66.5 28 0.4 32.7
12:40 1026 30.3 855 25.25 18.9 66 27 -0.3 31.5
12:45 1026 30.3 855 25.25 17.7 63.9 27 -1.6 29.1
12:50 1026 30.3 855 25.25 17.3 63.2 27 -1.6 29
12:55 1026 30.3 855 25.25 17.7 63.8 27 -1.4 29.5
13:00 1026 30.3 855 25.25 19.1 66.3 25 -1.1 30.1
13:05 1026 30.3 855 25.25 19.5 67.1 26 -0.3 31.4
13:10 1026 30.3 855 25.25 19.6 67.2 25 -1 30.2
13:15 1026 30.3 855 25.25 19.7 67.4 26 -0.5 31.2
13:20 1026 30.3 855 25.25 19.7 67.4 24 -1.2 29.9
13:25 1026 30.3 855 25.25 19.8 67.7 25 -0.9 30.4
13:30 1026 30.3 855 25.25 19.9 67.8 25 -0.8 30.6
13:35 1025 30.27 855 25.25 19.1 66.4 25 -1.5 29.4
13:40 1025 30.27 855 25.25 19 66.2 25 -1.5 29.2
13:45 1025 30.27 855 25.25 19.3 66.7 25 -0.9 30.4
13:50 1025 30.27 855 25.25 19.8 67.6 25 -0.7 30.7
13:55 1025 30.27 855 25.25 20.2 68.3 25 -0.5 31
14:00 1025 30.27 854 25.22 20.6 69 23 -0.9 30.4
14:05 1025 30.27 854 25.22 20.5 69 24 -0.5 31.2
14:10 1025 30.27 854 25.22 18.7 65.7 25 -1.6 29
14:15 1025 30.27 854 25.22 19.5 67.2 25 -0.8 30.6
14:20 1025 30.27 854 25.22 19.8 67.6 24 -1.4 29.5
14:25 1025 30.27 854 25.22 19.5 67.1 24 -1.2 29.9
14:30 1025 30.27 854 25.22 19.5 67.1 26 -0.2 31.6
14:35 1025 30.27 854 25.22 19 66.2 26 -0.9 30.4
14:40 1025 30.27 854 25.22 19.6 67.2 25 -0.7 30.7
14:45 1025 30.27 854 25.22 19.6 67.3 25 -1 30.3
14:50 1025 30.27 854 25.22 20.9 69.7 23 -0.8 30.6
14:55 1025 30.27 854 25.22 20.5 68.9 25 -0.2 31.6
15:00 1025 30.27 854 25.22 20.1 68.1 24 -1.2 29.8
15:05 1025 30.27 854 25.22 20.2 68.3 24 -0.9 30.3
15:10 1025 30.27 854 25.22 20.3 68.5 24 -0.6 30.9
15:15 1025 30.27 854 25.22 20.6 69.2 23 -1 30.1
15:20 1025 30.27 854 25.22 20.9 69.6 22 -1.6 29.2
15:25 1025 30.27 854 25.22 20.9 69.6 23 -1 30.3
15:30 1025 30.27 854 25.22 21.1 70 22 -1.2 29.9
15:35 1025 30.27 854 25.22 21.2 70.2 22 -1.1 30.1
15:40 1025 30.27 854 25.22 21.2 70.1 21 -2 28.4
15:45 1025 30.27 854 25.22 21.2 70.2 22 -1.4 29.5
15:50 1025 30.27 854 25.22 21.1 70 21 -1.6 29
15:55 1025 30.27 854 25.22 20.9 69.6 22 -1.4 29.6
16:00 1025 30.27 854 25.22 21.1 69.9 23 -0.9 30.5
16:05 1025 30.27 854 25.22 21.2 70.1 22 -1.1 30.1
16:10 1025 30.27 854 25.22 21.1 70 23 -0.9 30.4
16:15 1025 30.27 854 25.22 20.9 69.6 23 -0.8 30.6
16:20 1025 30.27 854 25.22 21.2 70.1 22 -1.3 29.7
16:25 1025 30.27 854 25.22 21.4 70.5 21 -1.4 29.6
16:30 1025 30.27 854 25.22 20.9 69.7 22 -1.4 29.4
16:35 1025 30.27 854 25.22 20.8 69.4 24 -0.2 31.6
16:40 1025 30.27 854 25.22 20.8 69.4 23 -1.1 30
16:45 1025 30.27 854 25.22 20.8 69.4 24 -0.6 30.9
16:50 1025 30.27 854 25.22 20.7 69.2 23 -0.8 30.5
16:55 1025 30.27 854 25.22 20.3 68.5 24 -0.7 30.8
17:00 1025 30.27 854 25.22 20.2 68.3 24 -1.1 30.1
17:05 1025 30.27 854 25.22 20.3 68.6 23 -1.3 29.6
17:10 1025 30.27 854 25.22 20.3 68.5 23 -1.3 29.7
17:15 1025 30.27 854 25.22 20 67.9 25 -0.6 30.9
17:20 1025 30.27 854 25.22 19.6 67.3 25 -1 30.3
17:25 1025 30.27 854 25.22 19.4 66.9 24 -1.3 29.7
17:30 1025 30.27 854 25.22 19.3 66.7 25 -1.1 30
17:35 1025 30.27 854 25.22 19.2 66.5 25 -1 30.2
17:40 1025 30.27 854 25.22 19.1 66.3 25 -1.5 29.3
17:45 1025 30.27 854 25.22 18.9 65.9 26 -1.1 30.1
17:50 1025 30.27 854 25.22 18.7 65.7 26 -1.3 29.7
17:55 1025 30.27 854 25.22 18.6 65.5 25 -1.4 29.5
18:00 1025 30.27 854 25.22 18.5 65.3 25 -1.7 28.9
18:05 1025 30.27 854 25.22 18.4 65.1 25 -1.7 29
18:10 1025 30.27 854 25.22 18.3 64.9 27 -1 30.2
18:15 1025 30.27 854 25.22 18.1 64.6 26 -1.7 29
18:20 1025 30.27 854 25.22 18 64.4 26 -1.7 29
18:25 1025 30.27 854 25.22 17.8 64.1 26 -1.8 28.8
18:30 1025 30.27 854 25.22 17.7 63.8 28 -1.1 30.1
18:35 1025 30.27 854 25.22 17.5 63.6 28 -1.3 29.7
18:40 1025 30.27 854 25.22 17.4 63.3 28 -1.2 29.8
18:45 1025 30.27 854 25.22 17.2 63 29 -1 30.2
18:50 1025 30.27 854 25.22 17.1 62.7 27 -1.9 28.5
18:55 1025 30.27 854 25.22 16.9 62.4 30 -0.6 30.9
19:00 1025 30.27 854 25.22 16.7 62.1 29 -1.2 29.8
19:05 1025 30.27 854 25.22 16.6 61.8 32 -0 32
19:10 1025 30.27 854 25.22 15.8 60.5 40 2.4 36.2
19:15 1025 30.27 854 25.22 14.7 58.5 45 3.1 37.6
19:20 1025 30.27 854 25.22 14.1 57.3 49 3.7 38.7
19:25 1025 30.27 854 25.22 13.5 56.4 51 3.7 38.7
19:30 1025 30.27 854 25.22 13.1 55.6 53 3.8 38.9
19:35 1025 30.27 854 25.22 12.7 54.8 54 3.8 38.8
19:40 1025 30.27 854 25.22 12.4 54.4 55 3.8 38.9
19:45 1025 30.27 854 25.22 12 53.6 59 4.2 39.5
19:50 1025 30.27 854 25.22 11.3 52.4 59 3.7 38.7
19:55 1025 30.27 854 25.22 11.2 52.2 60 3.9 39
20:00 1025 30.27 855 25.25 11 51.8 61 3.8 38.8
20:05 1025 30.27 855 25.25 10.9 51.5 58 2.8 37.1
20:10 1025 30.27 855 25.25 11 51.8 52 1.6 34.9
20:15 1025 30.27 855 25.25 11.4 52.6 52 1.9 35.4
20:20 1025 30.27 855 25.25 11.2 52.2 53 2 35.7
20:25 1025 30.27 855 25.25 10.8 51.4 54 1.9 35.5
20:30 1025 30.27 855 25.25 10.8 51.4 51 1.1 33.9
20:35 1025 30.27 855 25.25 11.1 52.1 51 1.3 34.4
20:40 1025 30.27 855 25.25 11 51.9 51 1.2 34.2
20:45 1025 30.27 855 25.25 11 51.8 51 1.2 34.2
20:50 1026 30.3 855 25.25 10.9 51.6 52 1.4 34.5
20:55 1026 30.3 855 25.25 10.9 51.6 50 0.8 33.5
21:00 1026 30.3 855 25.25 11.1 51.9 50 1 33.8
21:05 1026 30.3 855 25.25 11 51.8 50 1.1 34
21:10 1026 30.3 855 25.25 10.9 51.6 48 0.4 32.8
21:15 1026 30.3 855 25.25 11.2 52.1 49 0.9 33.7
21:20 1026 30.3 855 25.25 11 51.7 50 1.1 34
21:25 1026 30.3 855 25.25 10.5 51 53 1.4 34.5
21:30 1026 30.3 855 25.25 10 50 55 1.3 34.4
21:35 1026 30.3 855 25.25 9.6 49.3 55 1.1 34
21:40 1026 30.3 855 25.25 9.4 49 54 0.8 33.4
21:45 1026 30.3 855 25.25 9.8 49.7 53 0.8 33.4
21:50 1026 30.3 855 25.25 10.1 50.2 52 0.8 33.4
21:55 1026 30.3 855 25.25 10.2 50.3 52 0.9 33.6
22:00 1025 30.27 855 25.25 10 50 53 0.9 33.6
22:05 1026 30.3 855 25.25 9.9 49.9 53 1 33.7
22:10 1026 30.3 855 25.25 9.8 49.6 53 0.8 33.4
22:15 1025 30.27 855 25.25 9.8 49.7 54 0.9 33.7
22:20 1025 30.27 855 25.25 9.6 49.3 55 0.9 33.7
22:25 1025 30.27 855 25.25 9.4 48.8 56 1.1 33.9
22:30 1025 30.27 855 25.25 9.3 48.7 55 0.7 33.3
22:35 1025 30.27 855 25.25 9.4 48.9 54 0.6 33.1
22:40 1026 30.3 855 25.25 9.7 49.4 52 0.3 32.6
22:45 1026 30.3 855 25.25 9.9 49.8 51 0.3 32.6
22:50 1026 30.3 855 25.25 9.9 49.9 51 0.3 32.5
22:55 1025 30.27 855 25.25 9.8 49.7 52 0.4 32.7
23:00 1025 30.27 855 25.25 9.8 49.6 50 -0 31.9
23:05 1025 30.27 855 25.25 10.1 50.2 50 0.2 32.4
23:10 1025 30.27 855 25.25 9.8 49.6 51 0.1 32.3
23:15 1025 30.27 855 25.25 9.9 49.8 50 0.1 32.2
23:20 1025 30.27 855 25.25 9.7 49.5 51 0.1 32.3
23:25 1026 30.3 855 25.25 9.5 49.2 51 0.1 32.1
23:30 1026 30.3 855 25.25 9.5 49 52 0 32.1
23:35 1026 30.3 855 25.25 9.4 48.9 52 0.2 32.3
23:40 1026 30.3 855 25.25 9.2 48.5 52 -0 32
23:45 1026 30.3 855 25.25 9 48.2 52 -0.4 31.2
23:50 1026 30.3 855 25.25 9.2 48.6 51 -0.4 31.3
23:55 1026 30.3 855 25.25 9.3 48.7 50 -0.5 31.1
24:00 1026 30.3 855 25.25 9.1 48.3 52 -0.1 31.8